Nearby METAR (Airport) Reports

 

KPRN - Greenville, Alabama, USA
Distance from station: WNW 17mi, 28km
Updated: 10/25/2021 4:58pm
Light rain, Partly cloudy
Light rain, Partly cloudy
 Wind from varies
Wind: varies 7 mph , 11 km/h
Temperature: 93°F , 34°C
Dew Point: 64°F , 18°C
Humidity: 39%
Barometer: 29.85 inHg , 1010.8 hPa
Summary: Light rain
Clouds: Partly cloudy
Visibility: 10 miles , 16 km
Cloud details: Few Clouds 2800 ft
Partly cloudy 3400 ft
2021/10/25 21:58 KPRN 252158Z AUTO VRB06KT 10SM -RA FEW028 SCT034 34/18 A2985 RMK AO2 SLP054 P0000 T03440178
KTOI - Troy, Alabama, USA
Distance from station: ENE 21mi, 34km
Updated: 10/25/2021 4:53pm
Partly cloudy
Partly cloudy
 Wind from W
Wind: W 5 mph , 7 km/h
Temperature: 82°F , 28°C
Heat Index: 84°F , 29°C
Dew Point: 66°F , 19°C
Humidity: 58%
Barometer: 29.85 inHg , 1010.8 hPa
Clouds: Partly cloudy
Visibility: 10 miles , 16 km
Cloud details: Few Clouds 4000 ft
Partly cloudy 5000 ft
2021/10/25 21:53 KTOI 252153Z AUTO 28004KT 10SM FEW040 SCT050 28/19 A2985 RMK AO2 SLP101 T02830189
K79J - Andalusia/Opp Ar, Alabama, USA
Distance from station: S 29mi, 47km
Updated: 10/25/2021 4:56pm
Clear
Clear
 Wind from W
Wind: W 8 mph , 13 km/h
Temperature: 84°F , 29°C
Heat Index: 86°F , 30°C
Dew Point: 66°F , 19°C
Humidity: 55%
Barometer: 29.85 inHg , 1010.8 hPa
Clouds: Clear
Visibility: 10 miles , 16 km
2021/10/25 21:56 K79J 252156Z AUTO 26007KT 10SM CLR 29/19 A2985 RMK AO2 SLP102 T02940194
 
KMGM - Montgomery, Alabama, USA
Distance from station: N 39mi, 63km
Updated: 10/25/2021 4:53pm
Clear
Clear
 Wind from W
Wind: W 10 mph , 17 km/h
Temperature: 81°F , 27°C
Heat Index: 83°F , 28°C
Dew Point: 66°F , 19°C
Humidity: 62%
Barometer: 29.84 inHg , 1010.5 hPa
Clouds: Clear
Visibility: 10 miles , 16 km
2021/10/25 21:53 KMGM 252153Z 27009KT 10SM CLR 27/19 A2984 RMK AO2 SLP102 T02670189
KMXF - Maxwell Afb/Mgm, Alabama, USA
Distance from station: N 44mi, 70km
Updated: 10/25/2021 4:56pm
Few Clouds
Few Clouds
 Wind from WNW
Wind: WNW 6 mph , 9 km/h
Temperature: 79°F , 26°C
Dew Point: 66°F , 19°C
Humidity: 65%
Barometer: 29.82 inHg , 1009.8 hPa
Clouds: Few Clouds
Visibility: 10 miles , 16 km
Cloud details: Few Clouds 3300 ft
2021/10/25 21:56 KMXF 252156Z AUTO 29005KT 10SM FEW033 26/19 A2982 RMK AO2 SLP100 T02620193
KLOR - Lowe Ahp/Ft. Ruc, Alabama, USA
Distance from station: SE 44mi, 71km
Updated: 10/25/2021 4:58pm
Clear
Clear
 Wind from WNW
Wind: WNW 8 mph , 13 km/h
Temperature: 82°F , 28°C
Heat Index: 85°F , 29°C
Dew Point: 68°F , 20°C
Humidity: 62%
Barometer: 29.83 inHg , 1010.2 hPa
Clouds: Clear
Visibility: 10 miles , 16 km
2021/10/25 21:58 KLOR 252158Z AUTO 29007KT 10SM CLR 28/20 A2983 RMK AO2 SLP083 T02780195
 
KGZH - Evergreen, Alabama, USA
Distance from station: WSW 46mi, 75km
Updated: 10/25/2021 4:53pm
Clear
Clear
 Wind from calm
Wind: Calm
Temperature: 82°F , 28°C
Heat Index: 85°F , 29°C
Dew Point: 68°F , 20°C
Humidity: 62%
Barometer: 29.87 inHg , 1011.5 hPa
Clouds: Clear
Visibility: 10 miles , 16 km
2021/10/25 21:53 KGZH 252153Z AUTO 00000KT 10SM CLR 28/20 A2987 RMK AO2 SLP111 T02830200
K0J4 - Florala Muni, Alabama, USA
Distance from station: S 47mi, 76km
Updated: 10/25/2021 4:58pm
Clear
Clear
 Wind from varies
Wind: varies 3 mph , 6 km/h
Temperature: 84°F , 29°C
Heat Index: 86°F , 30°C
Dew Point: 66°F , 19°C
Humidity: 55%
Barometer: 29.86 inHg , 1011.2 hPa
Clouds: Clear
Visibility: 10 miles , 16 km
2021/10/25 21:58 K0J4 252158Z AUTO VRB03KT 10SM CLR 29/19 A2986 RMK AO2 SLP108 T02890189 $
KOZR - Ozark/Cairns Aaf, Alabama, USA
Distance from station: SE 49mi, 78km
Updated: 10/25/2021 4:56pm
Clear
Clear
 Wind from WNW
Wind: WNW 5 mph , 7 km/h
Temperature: 82°F , 28°C
Heat Index: 84°F , 29°C
Dew Point: 66°F , 19°C
Humidity: 58%
Barometer: 29.83 inHg , 1010.2 hPa
Clouds: Clear
Visibility: 10 miles , 16 km
2021/10/25 21:56 KOZR 252156Z AUTO 29004KT 10SM CLR 28/19 A2983 RMK AO2 SLP101 T02770192
 
KHEY - Ft Rucker/Hanche, Alabama, USA
Distance from station: ESE 49mi, 79km
Updated: 10/25/2021 4:58pm
Clear
Clear
 Wind from NW
Wind: NW 3 mph , 6 km/h
Temperature: 82°F , 28°C
Heat Index: 85°F , 29°C
Dew Point: 68°F , 20°C
Humidity: 62%
Barometer: 29.81 inHg , 1009.5 hPa
Clouds: Clear
Visibility: 10 miles , 16 km
2021/10/25 21:58 KHEY 252158Z AUTO 31003KT 10SM CLR 28/20 A2981 RMK AO2 SLP094 T02750201
KDHN - Dothan, Alabama, USA
Distance from station: ESE 61mi, 97km
Updated: 10/25/2021 4:53pm
Clear
Clear
 Wind from WNW
Wind: WNW 12 mph , 19 km/h
Temperature: 82°F , 28°C
Heat Index: 84°F , 29°C
Dew Point: 66°F , 19°C
Humidity: 58%
Barometer: 29.87 inHg , 1011.5 hPa
Clouds: Clear
Visibility: 10 miles , 16 km
2021/10/25 21:53 KDHN 252153Z 29010KT 10SM CLR 28/19 A2987 RMK AO2 SLP107 T02830194
KCEW - Crestview, Florida, USA
Distance from station: S 66mi, 107km
Updated: 10/19/2021 8:53am
NOT Current
Clear
Clear
 Wind from E
Wind: E 5 mph , 7 km/h
Temperature: 61°F , 16°C
Dew Point: 54°F , 12°C
Humidity: 77%
Barometer: 30.21 inHg , 1023 hPa
Clouds: Clear
Visibility: 10 miles , 16 km
2021/10/19 13:53 KCEW 191353Z AUTO 10004KT 10SM CLR 16/12 A3021 RMK AO2 SLP228 T01610122 TSNO
 
KEUF - Eufaula, Alabama, USA
Distance from station: ENE 73mi, 118km
Updated: 10/25/2021 4:58pm
Few Clouds
Few Clouds
 Wind from W
Wind: W 7 mph , 11 km/h
Temperature: 82°F , 28°C
Heat Index: 85°F , 29°C
Dew Point: 68°F , 20°C
Humidity: 62%
Barometer: 29.83 inHg , 1010.2 hPa
Clouds: Few Clouds
Visibility: 10 miles , 16 km
Cloud details: Few Clouds 6000 ft
2021/10/25 21:58 KEUF 252158Z AUTO 28006KT 10SM FEW060 28/20 A2983 RMK AO2 SLP096 T02780200
KJKA - Gulf Shores, Alabama, USA
Distance from station: SSW 132mi, 212km
Updated: 10/25/2021 4:55pm
Clear
Clear
 Wind from W
Wind: W 10 mph , 17 km/h
Temperature: 81°F , 27°C
Heat Index: 85°F , 29°C
Dew Point: 72°F , 22°C
Humidity: 74%
Barometer: 29.87 inHg , 1011.5 hPa
Clouds: Clear
Visibility: 10 miles , 16 km
2021/10/25 21:55 KJKA 252155Z AUTO 26009KT 10SM CLR 27/22 A2987 RMK AO2 T02690221
KLSF - Ft Benning/Colum, Georgia, USA
Distance from station: SNE 89mi, 143km
Updated: 10/25/2021 5:01pm
Mostly cloudy
Mostly cloudy
 Wind from W
Wind: W 6 mph , 9 km/h
Temperature: 81°F , 27°C
Heat Index: 82°F , 28°C
Dew Point: 63°F , 17°C
Humidity: 54%
Barometer: 29.80 inHg , 1009.1 hPa
Clouds: Mostly cloudy
Visibility: 10 miles , 16 km
Cloud details: Partly cloudy 3800 ft
Mostly cloudy 5500 ft
2021/10/25 22:01 KLSF 252201Z AUTO 27005KT 10SM SCT038 BKN055 27/17 A2980 RMK AO2 SLP095 $
 
KMOB - Mobile/Bates, Alabama, USA
Distance from station: SW 125mi, 202km
Updated: 10/25/2021 4:56pm
Few Clouds
Few Clouds
 Wind from WNW
Wind: WNW 5 mph , 7 km/h
Temperature: 82°F , 28°C
Heat Index: 86°F , 30°C
Dew Point: 70°F , 21°C
Humidity: 66%
Barometer: 29.88 inHg , 1011.9 hPa
Clouds: Few Clouds
Visibility: 10 miles , 16 km
Cloud details: Few Clouds 3500 ft
2021/10/25 21:56 KMOB 252156Z 30004KT 10SM FEW035 28/21 A2988 RMK AO2 SLP115 T02830206
KNMM - Meridian Nas, Mississippi, USA
Distance from station: WNW 151mi, 243km
Updated: 10/25/2021 4:56pm
Few Clouds
Few Clouds
 Wind from WNW
Wind: WNW 9 mph , 15 km/h
Temperature: 81°F , 27°C
Heat Index: 83°F , 28°C
Dew Point: 64°F , 18°C
Humidity: 58%
Barometer: 29.89 inHg , 1012.2 hPa
Clouds: Few Clouds
Visibility: 10 miles , 16 km
Cloud details: Few Clouds 4000 ft
2021/10/25 21:56 KNMM 252156Z 30008KT 10SM FEW040 27/18 A2989 RMK AO2 SLP128 T02720178 $
KQHY - Hurlbert (Ft Walton Bch), Florida, USA
Distance from station: S 94mi, 151km
Updated: 10/25/2021 4:56pm
Clear
Clear
 Wind from W
Wind: W 7 mph , 11 km/h
Temperature: 81°F , 27°C
Heat Index: 87°F , 31°C
Dew Point: 75°F , 24°C
Humidity: 84%
Barometer: 29.85 inHg , 1010.8 hPa
Clouds: Clear
Visibility: 10 miles , 16 km
2021/10/25 21:56 KQHY 252156Z AUTO 26006KT 10SM CLR 27/24 A2985 RMK AO2 SLP115 T02700238
 
KTCL - Tuscaloosa, Alabama, USA
Distance from station: NNW 129mi, 207km
Updated: 10/25/2021 4:53pm
Few Clouds
Few Clouds
 Wind from WNW
Wind: WNW 7 mph , 11 km/h
Temperature: 81°F , 27°C
Heat Index: 82°F , 28°C
Dew Point: 63°F , 17°C
Humidity: 54%
Barometer: 29.86 inHg , 1011.2 hPa
Clouds: Few Clouds
Visibility: 10 miles , 16 km
Cloud details: Few Clouds 5500 ft
2021/10/25 21:53 KTCL 252153Z 29006KT 10SM FEW055 27/17 A2986 RMK AO2 SLP108 T02720172
KECP - Panama City, Florida, USA
Distance from station: SSE 122mi, 196km
Updated: 10/25/2021 4:53pm
Partly cloudy
Partly cloudy
 Wind from WSW
Wind: WSW 9 mph , 15 km/h
Temperature: 82°F , 28°C
Heat Index: 86°F , 30°C
Dew Point: 72°F , 22°C
Humidity: 70%
Barometer: 29.84 inHg , 1010.5 hPa
Clouds: Partly cloudy
Visibility: 10 miles , 16 km
Cloud details: Partly cloudy 2800 ft
2021/10/25 21:53 KECP 252153Z 25008KT 10SM SCT028 28/22 A2984 RMK AO2 SLP114 T02780222
KCBM - Columbus Afb, Mississippi, USA
Distance from station: NW 175mi, 282km
Updated: 10/25/2021 4:56pm
Clear
Clear
 Wind from WNW
Wind: WNW 7 mph , 11 km/h
Temperature: 79°F , 26°C
Dew Point: 57°F , 14°C
Humidity: 48%
Barometer: 29.88 inHg , 1011.9 hPa
Clouds: Clear
Visibility: 10 miles , 16 km
2021/10/25 21:56 KCBM 252156Z AUTO 29006KT 10SM CLR 26/14 A2988 RMK AO2 SLP119 T02620136 $
 
KBHM - Birmingham, Alabama, USA
Distance from station: N 132mi, 212km
Updated: 10/25/2021 4:53pm
Partly cloudy
Partly cloudy
 Wind from W
Wind: W 9 mph , 15 km/h
Temperature: 75°F , 24°C
Dew Point: 63°F , 17°C
Humidity: 65%
Clouds: Partly cloudy
Visibility: 10 miles , 16 km
Cloud details: Partly cloudy 3000 ft
2021/10/25 21:53 KBHM 252153Z 27008KT 10SM SCT030 24/17 RMK AO2 SLPNO T02440172 $
KAAF - Apalachicola, Florida, USA
Distance from station: SSE 156mi, 250km
Updated: 10/25/2021 4:53pm
Clear
Clear
 Wind from WNW
Wind: WNW 12 mph , 19 km/h
Temperature: 82°F , 28°C
Heat Index: 86°F , 30°C
Dew Point: 72°F , 22°C
Humidity: 70%
Barometer: 29.84 inHg , 1010.5 hPa
Clouds: Clear
Visibility: 10 miles , 16 km
2021/10/25 21:53 KAAF 252153Z AUTO 29010KT 10SM CLR 28/22 A2984 RMK AO2 SLP105 T02780217
KATL - Atlanta, Georgia, USA
Distance from station: NE 177mi, 287km
Updated: 10/25/2021 4:52pm
Few Clouds
Few Clouds
 Wind from W
Wind: W 15 mph , 24 km/h, Gust: 21 mph , 33 km/h
Temperature: 75°F , 24°C
Dew Point: 64°F , 18°C
Humidity: 69%
Barometer: 29.81 inHg , 1009.5 hPa
Clouds: Few Clouds
Visibility: 10 miles , 16 km
Cloud details: Few Clouds 3000 ft
Few Clouds 25000 ft
2021/10/25 21:52 KATL 252152Z 26013G18KT 10SM FEW030 FEW250 24/18 A2981 RMK AO2 SLP088 TCU DSNT NW-NE-SE-S T02440178
 
KGPT - Gulfport, Mississippi, USA
Distance from station: SW 192mi, 309km
Updated: 10/25/2021 4:53pm
Clear
Clear
 Wind from WNW
Wind: WNW 9 mph , 15 km/h
Temperature: 86°F , 30°C
Heat Index: 91°F , 33°C
Dew Point: 70°F , 21°C
Humidity: 59%
Barometer: 29.87 inHg , 1011.5 hPa
Clouds: Clear
Visibility: 10 miles , 16 km
2021/10/25 21:53 KGPT 252153Z 30008KT 10SM CLR 30/21 A2987 RMK AO2 SLP113 T03000206
KNEW - New Orleans/Lake, Louisiana, USA
Distance from station: SW 255mi, 410km
Updated: 10/25/2021 4:53pm
Clear
Clear
 Wind from WNW
Wind: WNW 6 mph , 9 km/h
Temperature: 82°F , 28°C
Heat Index: 87°F , 31°C
Dew Point: 73°F , 23°C
Humidity: 74%
Barometer: 29.90 inHg , 1012.5 hPa
Clouds: Clear
Visibility: 10 miles , 16 km
2021/10/25 21:53 KNEW 252153Z AUTO 29005KT 10SM CLR 28/23 A2990 RMK AO2 SLP119 T02780228
KP92 - Salt Point, Louisiana, USA
Distance from station: SW 347mi, 559km
Updated: 10/25/2021 2:59pm
NOT Current

 Wind from W
Wind: W 6 mph , 9 km/h
Temperature: 82°F , 28°C
Heat Index: 89°F , 32°C
Dew Point: 75°F , 24°C
Humidity: 79%
Barometer: 29.90 inHg , 1012.5 hPa
2021/10/25 19:59 KP92 251959Z AUTO 26005KT 28/24 A2990 RMK AO1 SLP125 T02780239